createdAt,value
2022-10-13T00:04:54.419Z,6.00
2022-10-13T00:15:17.309Z,6.00
2022-10-13T00:25:42.170Z,6.00
2022-10-13T00:36:07.394Z,5.80
2022-10-13T00:46:30.807Z,5.80
2022-10-13T00:56:55.265Z,5.80
2022-10-13T01:07:17.684Z,5.60
2022-10-13T01:17:48.070Z,5.70
2022-10-13T01:28:26.760Z,5.70
2022-10-13T01:38:57.852Z,5.60
2022-10-13T01:49:25.468Z,5.50
2022-10-13T01:59:48.314Z,5.50
2022-10-13T02:10:15.721Z,5.90
2022-10-13T02:20:44.352Z,6.30
2022-10-13T02:31:06.946Z,6.30
2022-10-13T02:41:29.959Z,6.30
2022-10-13T02:51:51.544Z,6.30
2022-10-13T03:02:14.724Z,6.10
2022-10-13T03:12:37.769Z,5.70
2022-10-13T03:23:00.990Z,5.90
2022-10-13T03:33:22.964Z,5.90
2022-10-13T03:43:47.261Z,5.90
2022-10-13T03:54:12.937Z,5.80
2022-10-13T04:04:36.505Z,5.70
2022-10-13T04:14:59.261Z,5.50
2022-10-13T04:25:23.151Z,5.60
2022-10-13T04:35:44.893Z,6.00
2022-10-13T04:46:14.704Z,6.00
2022-10-13T04:56:37.201Z,6.10
2022-10-13T05:07:17.191Z,6.20
2022-10-13T05:17:40.987Z,6.20
2022-10-13T05:28:05.325Z,6.40
2022-10-13T05:38:26.881Z,6.50
2022-10-13T05:48:49.741Z,6.80
2022-10-13T05:59:14.998Z,7.20
2022-10-13T06:09:42.701Z,7.20
2022-10-13T06:20:06.025Z,7.30
2022-10-13T06:30:29.759Z,7.40
2022-10-13T06:41:01.199Z,7.60
2022-10-13T06:51:29.519Z,7.80
2022-10-13T07:02:02.042Z,8.30
2022-10-13T07:12:24.918Z,8.90
2022-10-13T07:22:46.406Z,8.80
2022-10-13T07:33:10.932Z,9.60
2022-10-13T07:43:32.768Z,10.50
2022-10-13T07:53:56.934Z,10.80
2022-10-13T08:04:18.492Z,11.70
2022-10-13T08:14:41.986Z,12.20
2022-10-13T08:25:03.526Z,13.20
2022-10-13T08:35:26.361Z,13.60
2022-10-13T08:45:50.933Z,14.00
2022-10-13T08:56:18.765Z,14.20
2022-10-13T09:06:45.055Z,14.50
2022-10-13T09:17:18.283Z,15.00
2022-10-13T09:27:45.128Z,14.90
2022-10-13T09:38:12.299Z,14.80
2022-10-13T09:48:39.140Z,14.80
2022-10-13T09:59:25.135Z,15.10
2022-10-13T10:10:00.079Z,15.40
2022-10-13T10:21:01.692Z,15.90
2022-10-13T10:31:49.840Z,16.70
2022-10-13T10:42:27.895Z,16.60
2022-10-13T10:52:58.775Z,16.70
2022-10-13T11:03:32.529Z,17.30
2022-10-13T11:13:56.371Z,17.70
2022-10-13T11:24:59.586Z,18.60
2022-10-13T11:35:23.883Z,18.50
2022-10-13T11:45:59.622Z,18.80
2022-10-13T11:56:24.078Z,19.20
2022-10-13T12:06:54.517Z,18.80
2022-10-13T12:17:28.761Z,18.10
2022-10-13T12:27:53.785Z,18.20
2022-10-13T12:38:19.780Z,17.80
2022-10-13T12:48:44.782Z,18.10
2022-10-13T12:59:06.503Z,17.40
2022-10-13T13:09:31.935Z,17.40
2022-10-13T13:19:53.698Z,17.30
2022-10-13T13:30:19.116Z,17.30
2022-10-13T13:40:40.282Z,17.20
2022-10-13T13:51:04.084Z,17.70
2022-10-13T14:01:25.870Z,17.70
2022-10-13T14:11:49.771Z,18.70
2022-10-13T14:22:11.497Z,18.80
2022-10-13T14:32:35.212Z,18.00
2022-10-13T14:42:56.703Z,17.50
2022-10-13T14:53:20.517Z,17.20
2022-10-13T15:03:42.220Z,17.80
2022-10-13T15:14:10.708Z,17.20
2022-10-13T15:24:31.908Z,16.80
2022-10-13T15:34:58.212Z,16.10
2022-10-13T15:45:19.445Z,15.70
2022-10-13T15:55:42.100Z,15.30
2022-10-13T16:06:05.422Z,15.00
2022-10-13T16:16:29.698Z,14.80
2022-10-13T16:26:50.874Z,14.50
2022-10-13T16:37:13.431Z,14.30
2022-10-13T16:47:34.952Z,14.10
2022-10-13T16:57:58.276Z,13.30
2022-10-13T17:08:19.711Z,13.40
2022-10-13T17:18:42.622Z,12.90
2022-10-13T17:29:04.102Z,12.40
2022-10-13T17:39:32.812Z,12.10
2022-10-13T17:49:58.224Z,12.10
2022-10-13T18:00:23.968Z,11.70
2022-10-13T18:11:07.171Z,11.40
2022-10-13T18:21:29.460Z,11.30
2022-10-13T18:31:51.428Z,11.00
2022-10-13T18:42:14.980Z,10.90
2022-10-13T18:52:36.527Z,10.70
2022-10-13T19:03:05.565Z,10.60
2022-10-13T19:14:00.173Z,10.30
2022-10-13T19:24:22.967Z,10.10
2022-10-13T19:34:44.355Z,10.10
2022-10-13T19:45:10.795Z,10.00
2022-10-13T19:55:39.052Z,10.20
2022-10-13T20:06:07.369Z,9.90
2022-10-13T20:16:37.881Z,9.80
2022-10-13T20:27:03.146Z,9.60
2022-10-13T20:37:28.984Z,9.60
2022-10-13T20:47:55.024Z,9.40
2022-10-13T20:58:16.271Z,9.40
2022-10-13T21:08:45.193Z,9.30
2022-10-13T21:19:06.652Z,9.30
2022-10-13T21:29:29.525Z,9.10
2022-10-13T21:39:51.361Z,8.80
2022-10-13T21:50:15.188Z,9.10
2022-10-13T22:00:40.802Z,9.10
2022-10-13T22:11:04.556Z,9.10
2022-10-13T22:21:49.634Z,8.90
2022-10-13T22:32:15.679Z,8.90
2022-10-13T22:42:37.363Z,8.60
2022-10-13T22:52:59.898Z,8.80
2022-10-13T23:03:21.694Z,8.40
2022-10-13T23:13:45.716Z,8.30
2022-10-13T23:24:08.314Z,8.60
2022-10-13T23:34:31.269Z,7.90
2022-10-13T23:44:55.131Z,8.20
2022-10-13T23:55:20.842Z,7.70
